createdAt,value
2022-10-20T00:01:09.398Z,99.90
2022-10-20T00:03:37.612Z,99.90
2022-10-20T00:06:11.935Z,99.90
2022-10-20T00:08:40.888Z,99.90
2022-10-20T00:11:09.812Z,99.90
2022-10-20T00:13:40.199Z,99.90
2022-10-20T00:16:09.245Z,99.90
2022-10-20T00:18:37.489Z,99.90
2022-10-20T00:21:07.496Z,99.90
2022-10-20T00:23:35.598Z,99.90
2022-10-20T00:26:05.459Z,99.90
2022-10-20T00:28:33.947Z,99.90
2022-10-20T00:31:04.010Z,99.90
2022-10-20T00:33:32.039Z,99.90
2022-10-20T00:36:00.299Z,99.90
2022-10-20T00:38:28.535Z,99.90
2022-10-20T00:40:56.544Z,99.90
2022-10-20T00:43:24.967Z,99.90
2022-10-20T00:45:56.038Z,99.90
2022-10-20T00:48:36.380Z,99.90
2022-10-20T00:51:04.869Z,99.90
2022-10-20T00:53:33.099Z,99.90
2022-10-20T00:56:02.470Z,99.90
2022-10-20T00:58:30.566Z,99.90
2022-10-20T01:01:00.598Z,99.90
2022-10-20T01:03:37.491Z,99.90
2022-10-20T01:06:05.941Z,99.90
2022-10-20T01:08:34.269Z,99.90
2022-10-20T01:11:15.514Z,99.90
2022-10-20T01:14:02.455Z,99.90
2022-10-20T01:16:43.645Z,99.90
2022-10-20T01:19:28.411Z,99.90
2022-10-20T01:22:14.394Z,99.90
2022-10-20T01:24:52.218Z,99.90
2022-10-20T01:27:30.265Z,99.90
2022-10-20T01:30:08.078Z,99.90
2022-10-20T01:32:57.046Z,99.90
2022-10-20T01:35:34.123Z,99.90
2022-10-20T01:38:08.897Z,99.90
2022-10-20T01:40:43.966Z,99.90
2022-10-20T01:43:16.040Z,99.90
2022-10-20T01:45:48.293Z,99.90
2022-10-20T01:48:20.835Z,99.90
2022-10-20T01:50:50.553Z,99.90
2022-10-20T01:53:18.528Z,99.90
2022-10-20T01:55:46.542Z,99.90
2022-10-20T01:58:39.334Z,99.90
2022-10-20T02:01:17.301Z,99.90
2022-10-20T02:03:53.590Z,99.90
2022-10-20T02:06:33.977Z,99.90
2022-10-20T02:09:07.027Z,99.90
2022-10-20T02:11:51.247Z,99.90
2022-10-20T02:14:22.555Z,99.90
2022-10-20T02:16:53.759Z,99.90
2022-10-20T02:19:26.250Z,99.90
2022-10-20T02:21:56.402Z,99.90
2022-10-20T02:24:28.026Z,99.90
2022-10-20T02:26:59.031Z,99.90
2022-10-20T02:29:32.545Z,99.90
2022-10-20T02:32:01.419Z,99.90
2022-10-20T02:34:29.454Z,99.90
2022-10-20T02:36:59.104Z,99.90
2022-10-20T02:39:27.428Z,99.90
2022-10-20T02:41:55.687Z,99.90
2022-10-20T02:44:23.878Z,99.90
2022-10-20T02:46:53.280Z,99.90
2022-10-20T02:49:21.603Z,99.90
2022-10-20T02:51:49.754Z,99.90
2022-10-20T02:54:17.761Z,99.90
2022-10-20T02:56:45.786Z,99.90
2022-10-20T02:59:14.896Z,99.90
2022-10-20T03:01:43.429Z,99.90
2022-10-20T03:04:13.557Z,99.90
2022-10-20T03:06:42.274Z,99.90
2022-10-20T03:09:10.318Z,99.90
2022-10-20T03:11:38.526Z,99.90
2022-10-20T03:14:06.643Z,99.90
2022-10-20T03:16:34.687Z,99.90
2022-10-20T03:19:05.296Z,99.90
2022-10-20T03:21:36.619Z,99.90
2022-10-20T03:24:05.081Z,99.90
2022-10-20T03:26:33.211Z,99.90
2022-10-20T03:29:01.225Z,99.90
2022-10-20T03:31:29.251Z,99.90
2022-10-20T03:33:57.357Z,99.90
2022-10-20T03:36:25.457Z,99.90
2022-10-20T03:38:54.816Z,99.90
2022-10-20T03:41:22.825Z,99.90
2022-10-20T03:43:50.812Z,99.90
2022-10-20T03:46:18.865Z,99.90
2022-10-20T03:48:46.877Z,99.90
2022-10-20T03:51:15.430Z,99.90
2022-10-20T03:53:43.563Z,99.90
2022-10-20T03:56:18.077Z,99.90
2022-10-20T03:58:46.177Z,99.90
2022-10-20T04:01:16.687Z,99.90
2022-10-20T04:03:45.458Z,99.90
2022-10-20T04:06:14.210Z,99.90
2022-10-20T04:08:42.362Z,99.90
2022-10-20T04:11:11.806Z,99.90
2022-10-20T04:13:39.945Z,99.90
2022-10-20T04:16:08.865Z,99.90
2022-10-20T04:18:37.058Z,99.90
2022-10-20T04:21:05.301Z,99.90
2022-10-20T04:23:33.289Z,99.90
2022-10-20T04:26:01.333Z,99.90
2022-10-20T04:28:30.719Z,99.90
2022-10-20T04:31:01.318Z,99.90
2022-10-20T04:33:29.298Z,99.90
2022-10-20T04:36:00.979Z,99.90
2022-10-20T04:38:30.935Z,99.90
2022-10-20T04:41:04.024Z,99.90
2022-10-20T04:43:33.772Z,99.90
2022-10-20T04:46:05.481Z,99.90
2022-10-20T04:48:36.301Z,99.90
2022-10-20T04:51:06.399Z,99.90
2022-10-20T04:53:34.712Z,99.90
2022-10-20T04:56:03.356Z,99.90
2022-10-20T04:58:32.731Z,99.90
2022-10-20T05:01:02.439Z,99.90
2022-10-20T05:03:30.405Z,99.90
2022-10-20T05:06:10.597Z,99.90
2022-10-20T05:08:38.760Z,99.90
2022-10-20T05:11:07.536Z,99.90
2022-10-20T05:13:37.355Z,99.90
2022-10-20T05:16:06.476Z,99.90
2022-10-20T05:18:35.356Z,99.90
2022-10-20T05:21:09.373Z,99.90
2022-10-20T05:23:38.434Z,99.90
2022-10-20T05:26:07.992Z,99.90
2022-10-20T05:28:37.408Z,99.90
2022-10-20T05:31:07.546Z,99.90
2022-10-20T05:33:35.909Z,99.90
2022-10-20T05:36:09.444Z,99.90
2022-10-20T05:38:37.797Z,99.90
2022-10-20T05:41:10.541Z,99.90
2022-10-20T05:43:40.555Z,99.90
2022-10-20T05:46:09.174Z,99.90
2022-10-20T05:48:42.849Z,99.90
2022-10-20T05:51:14.883Z,99.90
2022-10-20T05:53:44.074Z,99.90
2022-10-20T05:56:13.812Z,99.90
2022-10-20T05:58:43.673Z,99.90
2022-10-20T06:01:17.048Z,99.90
2022-10-20T06:03:47.888Z,99.90
2022-10-20T06:06:15.934Z,99.90
2022-10-20T06:08:43.993Z,99.90
2022-10-20T06:11:13.399Z,99.90
2022-10-20T06:13:45.040Z,99.90
2022-10-20T06:16:16.820Z,99.90
2022-10-20T06:18:45.053Z,99.90
2022-10-20T06:21:15.034Z,99.90
2022-10-20T06:23:43.084Z,99.90
2022-10-20T06:26:12.987Z,99.90
2022-10-20T06:28:42.671Z,99.90
2022-10-20T06:31:14.636Z,99.90
2022-10-20T06:33:43.454Z,99.90
2022-10-20T06:36:12.406Z,99.90
2022-10-20T06:38:40.978Z,99.90
2022-10-20T06:41:11.337Z,99.90
2022-10-20T06:43:39.574Z,99.90
2022-10-20T06:46:12.255Z,99.90
2022-10-20T06:48:40.423Z,99.90
2022-10-20T06:51:11.895Z,99.90
2022-10-20T06:53:42.743Z,99.90
2022-10-20T06:56:15.686Z,99.90
2022-10-20T06:58:45.502Z,99.90
2022-10-20T07:01:16.813Z,99.90
2022-10-20T07:03:46.310Z,99.90
2022-10-20T07:06:16.554Z,99.90
2022-10-20T07:08:45.248Z,99.90
2022-10-20T07:11:15.087Z,99.90
2022-10-20T07:13:43.954Z,99.90
2022-10-20T07:16:14.350Z,99.90
2022-10-20T07:21:19.134Z,99.90
2022-10-20T07:23:47.494Z,99.90
2022-10-20T07:26:18.790Z,99.90
2022-10-20T07:28:50.877Z,99.90
2022-10-20T07:31:26.790Z,99.90
2022-10-20T07:34:07.127Z,99.90
2022-10-20T07:36:43.648Z,99.90
2022-10-20T07:39:13.649Z,99.90
2022-10-20T07:41:44.048Z,99.90
2022-10-20T07:44:12.123Z,99.90
2022-10-20T07:46:40.191Z,99.90
2022-10-20T07:51:57.896Z,99.90
2022-10-20T07:54:25.930Z,99.90
2022-10-20T07:56:54.008Z,99.90
2022-10-20T07:59:21.996Z,99.90
2022-10-20T08:01:50.182Z,99.90
2022-10-20T08:04:20.090Z,99.90
2022-10-20T08:06:48.138Z,99.90
2022-10-20T08:09:16.253Z,99.90
2022-10-20T08:11:44.311Z,99.90
2022-10-20T08:14:12.333Z,99.90
2022-10-20T08:16:41.869Z,99.90
2022-10-20T08:19:18.332Z,99.90
2022-10-20T08:21:47.743Z,99.90
2022-10-20T08:24:15.798Z,99.90
2022-10-20T08:26:43.969Z,99.90
2022-10-20T08:29:13.289Z,99.90
2022-10-20T08:31:41.337Z,99.90
2022-10-20T08:34:09.333Z,99.90
2022-10-20T08:36:37.833Z,99.90
2022-10-20T08:39:07.176Z,99.90
2022-10-20T08:42:02.615Z,99.90
2022-10-20T08:44:28.936Z,99.90
2022-10-20T08:46:57.131Z,99.90
2022-10-20T08:49:28.617Z,99.90
2022-10-20T08:51:56.807Z,99.90
2022-10-20T08:54:26.388Z,99.90
2022-10-20T08:56:57.418Z,99.90
2022-10-20T08:59:29.849Z,99.90
2022-10-20T09:01:58.858Z,99.90
2022-10-20T09:04:33.174Z,99.90
2022-10-20T09:07:05.409Z,99.90
2022-10-20T09:09:35.960Z,99.90
2022-10-20T09:12:07.974Z,99.90
2022-10-20T09:14:38.319Z,99.90
2022-10-20T09:17:11.583Z,99.90
2022-10-20T09:19:40.247Z,99.90
2022-10-20T09:22:08.501Z,99.90
2022-10-20T09:24:38.063Z,99.90
2022-10-20T09:27:22.568Z,99.90
2022-10-20T09:29:50.601Z,99.90
2022-10-20T09:35:28.848Z,99.90
2022-10-20T09:38:03.475Z,99.90
2022-10-20T09:40:33.387Z,99.90
2022-10-20T09:43:04.081Z,99.90
2022-10-20T09:45:33.622Z,99.90
2022-10-20T09:48:06.356Z,99.90
2022-10-20T09:50:37.018Z,99.90
2022-10-20T09:53:08.441Z,99.90
2022-10-20T09:55:42.338Z,99.90
2022-10-20T09:58:28.204Z,99.90
2022-10-20T10:01:01.005Z,99.90
2022-10-20T10:03:29.286Z,99.90
2022-10-20T10:05:59.193Z,99.90
2022-10-20T10:08:29.736Z,99.90
2022-10-20T10:11:05.019Z,99.90
2022-10-20T10:13:39.929Z,99.90
2022-10-20T10:16:10.146Z,99.90
2022-10-20T10:18:39.373Z,99.90
2022-10-20T10:21:10.145Z,99.90
2022-10-20T10:23:51.457Z,99.90
2022-10-20T10:26:45.021Z,99.90
2022-10-20T10:29:21.449Z,99.90
2022-10-20T10:31:57.246Z,99.90
2022-10-20T10:34:42.718Z,99.90
2022-10-20T10:37:15.048Z,99.90
2022-10-20T10:39:44.478Z,99.90
2022-10-20T10:42:46.776Z,99.90
2022-10-20T10:45:22.930Z,99.90
2022-10-20T10:48:13.517Z,99.90
2022-10-20T10:50:48.673Z,99.90
2022-10-20T10:53:38.008Z,99.90
2022-10-20T10:56:14.714Z,99.90
2022-10-20T10:58:48.045Z,99.90
2022-10-20T11:01:31.361Z,99.90
2022-10-20T11:04:21.011Z,99.90
2022-10-20T11:06:58.061Z,99.90
2022-10-20T11:09:35.990Z,99.90
2022-10-20T11:12:34.372Z,99.90
2022-10-20T11:15:14.675Z,99.90
2022-10-20T11:17:54.543Z,99.90
2022-10-20T11:20:39.013Z,99.90
2022-10-20T11:23:38.629Z,99.90
2022-10-20T11:26:15.114Z,99.90
2022-10-20T11:28:46.669Z,99.90
2022-10-20T11:31:25.405Z,99.90
2022-10-20T11:33:58.498Z,99.90
2022-10-20T11:36:30.751Z,99.90
2022-10-20T11:38:58.749Z,99.90
2022-10-20T11:41:33.430Z,99.90
2022-10-20T11:44:21.030Z,99.90
2022-10-20T11:46:55.106Z,99.90
2022-10-20T11:49:23.275Z,99.90
2022-10-20T11:52:25.090Z,99.90
2022-10-20T11:55:05.504Z,99.90
2022-10-20T11:57:45.539Z,99.90
2022-10-20T12:00:42.861Z,99.90
2022-10-20T12:03:41.180Z,99.90
2022-10-20T12:06:32.874Z,99.90
2022-10-20T12:12:04.815Z,99.90
2022-10-20T12:14:38.665Z,99.90
2022-10-20T12:17:24.283Z,99.90
2022-10-20T12:20:13.757Z,99.90
2022-10-20T12:22:43.739Z,99.90
2022-10-20T12:25:37.539Z,99.90
2022-10-20T12:28:33.781Z,99.90
2022-10-20T12:31:03.417Z,99.90
2022-10-20T12:33:43.296Z,99.90
2022-10-20T12:36:29.368Z,99.90
2022-10-20T12:39:17.398Z,99.90
2022-10-20T12:41:58.076Z,99.90
2022-10-20T12:44:28.112Z,99.90
2022-10-20T12:46:58.631Z,99.90
2022-10-20T12:49:32.143Z,99.90
2022-10-20T12:52:03.366Z,99.90
2022-10-20T12:54:36.545Z,99.90
2022-10-20T12:57:22.867Z,99.90
2022-10-20T12:59:50.889Z,99.90
2022-10-20T13:02:47.351Z,99.90
2022-10-20T13:05:48.471Z,99.90
2022-10-20T13:08:30.645Z,99.90
2022-10-20T13:11:41.730Z,99.90
2022-10-20T13:14:25.904Z,99.90
2022-10-20T13:17:16.052Z,99.90
2022-10-20T13:19:48.186Z,99.90
2022-10-20T13:22:37.753Z,99.90
2022-10-20T13:25:17.650Z,99.90
2022-10-20T13:27:46.013Z,99.90
2022-10-20T13:30:21.907Z,99.90
2022-10-20T13:33:25.390Z,99.90
2022-10-20T13:35:55.706Z,99.60
2022-10-20T13:38:27.513Z,98.90
2022-10-20T13:41:02.619Z,99.00
2022-10-20T13:43:38.011Z,99.10
2022-10-20T13:46:32.569Z,99.70
2022-10-20T13:49:24.346Z,99.90
2022-10-20T13:51:59.741Z,98.80
2022-10-20T13:54:31.020Z,99.30
2022-10-20T13:57:00.951Z,98.70
2022-10-20T13:59:30.153Z,98.30
2022-10-20T14:02:00.334Z,98.70
2022-10-20T14:04:30.840Z,98.80
2022-10-20T14:07:04.300Z,99.00
2022-10-20T14:09:32.495Z,98.50
2022-10-20T14:12:05.225Z,98.00
2022-10-20T14:14:33.757Z,98.60
2022-10-20T14:17:04.234Z,99.00
2022-10-20T14:19:33.593Z,99.40
2022-10-20T14:22:13.808Z,98.70
2022-10-20T14:24:44.530Z,98.70
2022-10-20T14:27:21.398Z,99.30
2022-10-20T14:29:50.277Z,99.60
2022-10-20T14:32:20.928Z,99.50
2022-10-20T14:34:57.542Z,99.60
2022-10-20T14:37:32.793Z,99.70
2022-10-20T14:40:02.689Z,99.40
2022-10-20T14:42:34.488Z,99.60
2022-10-20T14:45:03.958Z,99.70
2022-10-20T14:47:38.778Z,99.80
2022-10-20T14:50:08.152Z,99.90
2022-10-20T14:52:37.185Z,99.90
2022-10-20T14:55:33.405Z,99.90
2022-10-20T14:58:02.867Z,99.90
2022-10-20T15:00:34.565Z,99.90
2022-10-20T15:03:06.932Z,99.90
2022-10-20T15:05:39.801Z,99.90
2022-10-20T15:08:26.748Z,99.90
2022-10-20T15:10:55.149Z,99.90
2022-10-20T15:13:28.372Z,99.90
2022-10-20T15:15:57.906Z,99.90
2022-10-20T15:18:26.736Z,99.90
2022-10-20T15:20:56.005Z,99.90
2022-10-20T15:23:25.606Z,99.90
2022-10-20T15:25:55.533Z,99.90
2022-10-20T15:28:39.300Z,99.90
2022-10-20T15:31:17.192Z,99.90
2022-10-20T15:33:45.221Z,99.90
2022-10-20T15:36:15.794Z,99.90
2022-10-20T15:38:44.403Z,99.90
2022-10-20T15:41:15.106Z,99.90
2022-10-20T15:43:44.786Z,99.90
2022-10-20T15:46:14.350Z,99.90
2022-10-20T15:48:43.195Z,99.90
2022-10-20T15:51:16.429Z,99.90
2022-10-20T15:53:45.952Z,99.90
2022-10-20T15:56:14.025Z,99.90
2022-10-20T15:58:42.068Z,99.90
2022-10-20T16:01:13.482Z,99.90
2022-10-20T16:03:43.315Z,99.90
2022-10-20T16:06:13.348Z,99.90
2022-10-20T16:08:41.450Z,99.90
2022-10-20T16:11:10.780Z,99.90
2022-10-20T16:13:39.293Z,99.90
2022-10-20T16:16:09.172Z,99.90
2022-10-20T16:18:38.584Z,99.90
2022-10-20T16:21:07.352Z,99.90
2022-10-20T16:23:40.738Z,99.90
2022-10-20T16:26:14.001Z,99.90
2022-10-20T16:28:42.349Z,99.90
2022-10-20T16:31:14.034Z,99.90
2022-10-20T16:33:44.005Z,99.90
2022-10-20T16:36:14.654Z,99.90
2022-10-20T16:38:42.927Z,99.90
2022-10-20T16:41:13.506Z,99.90
2022-10-20T16:43:43.420Z,99.90
2022-10-20T16:46:12.894Z,99.90
2022-10-20T16:48:43.830Z,99.90
2022-10-20T16:51:16.419Z,99.90
2022-10-20T16:53:44.723Z,99.90
2022-10-20T16:56:16.702Z,99.90
2022-10-20T16:58:48.046Z,99.90
2022-10-20T17:01:18.211Z,99.90
2022-10-20T17:03:48.008Z,99.90
2022-10-20T17:06:19.437Z,99.90
2022-10-20T17:08:48.113Z,99.90
2022-10-20T17:11:18.027Z,99.90
2022-10-20T17:13:46.121Z,99.90
2022-10-20T17:16:16.407Z,99.90
2022-10-20T17:18:45.791Z,99.90
2022-10-20T17:21:15.482Z,99.90
2022-10-20T17:23:45.970Z,99.90
2022-10-20T17:26:15.861Z,99.90
2022-10-20T17:28:44.160Z,99.90
2022-10-20T17:31:14.166Z,99.90
2022-10-20T17:33:42.688Z,99.90
2022-10-20T17:36:11.588Z,99.90
2022-10-20T17:38:40.077Z,99.90
2022-10-20T17:41:11.197Z,99.90
2022-10-20T17:43:39.241Z,99.90
2022-10-20T17:46:09.188Z,99.90
2022-10-20T17:48:37.697Z,99.90
2022-10-20T17:51:07.876Z,99.90
2022-10-20T17:53:36.986Z,99.90
2022-10-20T17:56:06.544Z,99.90
2022-10-20T17:58:36.030Z,99.90
2022-10-20T18:01:11.062Z,99.90
2022-10-20T18:03:39.605Z,99.90
2022-10-20T18:06:09.540Z,99.90
2022-10-20T18:08:37.834Z,99.90
2022-10-20T18:11:09.710Z,99.90
2022-10-20T18:13:40.341Z,99.90
2022-10-20T18:16:10.259Z,99.90
2022-10-20T18:18:39.318Z,99.90
2022-10-20T18:21:08.787Z,99.90
2022-10-20T18:23:37.113Z,99.90
2022-10-20T18:26:07.551Z,99.90
2022-10-20T18:28:36.420Z,99.90
2022-10-20T18:31:10.838Z,99.90
2022-10-20T18:33:39.113Z,99.90
2022-10-20T18:36:09.114Z,99.90
2022-10-20T18:38:38.571Z,99.90
2022-10-20T18:41:07.363Z,99.90
2022-10-20T18:43:35.958Z,99.90
2022-10-20T18:46:04.733Z,99.90
2022-10-20T18:48:37.792Z,99.90
2022-10-20T18:51:07.734Z,99.90
2022-10-20T18:53:37.551Z,99.90
2022-10-20T18:56:07.725Z,99.90
2022-10-20T18:58:38.775Z,99.90
2022-10-20T19:01:08.712Z,99.90
2022-10-20T19:03:39.072Z,99.90
2022-10-20T19:06:09.753Z,99.90
2022-10-20T19:08:38.849Z,99.90
2022-10-20T19:11:08.913Z,99.90
2022-10-20T19:13:36.989Z,99.90
2022-10-20T19:16:08.713Z,99.90
2022-10-20T19:18:40.449Z,99.90
2022-10-20T19:21:09.619Z,99.90
2022-10-20T19:23:40.089Z,99.90
2022-10-20T19:26:10.189Z,99.90
2022-10-20T19:28:40.682Z,99.90
2022-10-20T19:31:20.944Z,99.90
2022-10-20T19:33:53.208Z,99.90
2022-10-20T19:36:21.770Z,99.90
2022-10-20T19:38:50.304Z,99.90
2022-10-20T19:41:18.364Z,99.90
2022-10-20T19:43:46.678Z,99.90
2022-10-20T19:46:18.109Z,99.90
2022-10-20T19:48:47.318Z,99.90
2022-10-20T19:51:18.223Z,99.90
2022-10-20T19:53:46.971Z,99.90
2022-10-20T19:56:15.290Z,99.90
2022-10-20T19:58:46.541Z,99.90
2022-10-20T20:01:16.071Z,99.90
2022-10-20T20:03:44.715Z,99.90
2022-10-20T20:06:16.278Z,99.90
2022-10-20T20:08:47.148Z,99.90
2022-10-20T20:11:23.608Z,99.90
2022-10-20T20:13:52.026Z,99.90
2022-10-20T20:16:20.676Z,99.90
2022-10-20T20:18:49.212Z,99.90
2022-10-20T20:21:17.578Z,99.90
2022-10-20T20:23:58.786Z,99.90
2022-10-20T20:26:28.480Z,99.90
2022-10-20T20:28:57.408Z,99.90
2022-10-20T20:31:25.996Z,99.90
2022-10-20T20:33:54.966Z,99.90
2022-10-20T20:36:23.046Z,99.90
2022-10-20T20:38:53.810Z,99.90
2022-10-20T20:41:26.055Z,99.90
2022-10-20T20:43:54.197Z,99.90
2022-10-20T20:46:23.445Z,99.90
2022-10-20T20:48:51.950Z,99.90
2022-10-20T20:51:20.488Z,99.90
2022-10-20T20:53:48.646Z,99.90
2022-10-20T20:56:21.811Z,99.90
2022-10-20T20:58:55.041Z,99.90
2022-10-20T21:01:24.881Z,99.90
2022-10-20T21:03:54.210Z,99.90
2022-10-20T21:06:25.772Z,99.90
2022-10-20T21:09:01.780Z,99.90
2022-10-20T21:11:31.332Z,99.90
2022-10-20T21:14:00.029Z,99.90
2022-10-20T21:16:29.853Z,99.90
2022-10-20T21:18:59.340Z,99.90
2022-10-20T21:21:29.352Z,99.90
2022-10-20T21:23:58.012Z,99.90
2022-10-20T21:26:26.721Z,99.90
2022-10-20T21:28:56.145Z,99.90
2022-10-20T21:31:25.991Z,99.90
2022-10-20T21:33:55.281Z,99.90
2022-10-20T21:36:24.304Z,99.90
2022-10-20T21:38:53.167Z,99.90
2022-10-20T21:41:22.922Z,99.90
2022-10-20T21:43:52.855Z,99.90
2022-10-20T21:46:24.023Z,99.90
2022-10-20T21:48:53.464Z,99.90
2022-10-20T21:51:22.903Z,99.90
2022-10-20T21:53:51.176Z,99.90
2022-10-20T21:56:19.166Z,99.90
2022-10-20T21:58:47.171Z,99.90
2022-10-20T22:01:16.821Z,99.90
2022-10-20T22:03:48.051Z,99.90
2022-10-20T22:06:18.459Z,99.90
2022-10-20T22:08:49.195Z,99.90
2022-10-20T22:11:19.518Z,99.90
2022-10-20T22:13:48.276Z,99.90
2022-10-20T22:16:18.232Z,99.90
2022-10-20T22:18:47.754Z,99.90
2022-10-20T22:21:18.632Z,99.90
2022-10-20T22:23:47.500Z,99.90
2022-10-20T22:26:16.145Z,99.90
2022-10-20T22:28:44.204Z,99.90
2022-10-20T22:31:13.543Z,99.90
2022-10-20T22:33:44.004Z,99.90
2022-10-20T22:36:13.389Z,99.90
2022-10-20T22:38:41.395Z,99.90
2022-10-20T22:41:09.466Z,99.90
2022-10-20T22:43:37.582Z,99.90
2022-10-20T22:46:05.667Z,99.90
2022-10-20T22:48:33.778Z,99.90
2022-10-20T22:51:04.267Z,99.90
2022-10-20T22:53:33.692Z,99.90
2022-10-20T22:56:06.914Z,99.90
2022-10-20T22:58:35.147Z,99.90
2022-10-20T23:01:08.274Z,99.90
2022-10-20T23:03:36.423Z,99.90
2022-10-20T23:06:08.195Z,99.90
2022-10-20T23:08:41.873Z,99.90
2022-10-20T23:11:10.120Z,99.90
2022-10-20T23:13:38.348Z,99.90
2022-10-20T23:16:06.879Z,99.90
2022-10-20T23:18:35.568Z,99.90
2022-10-20T23:21:03.956Z,99.90
2022-10-20T23:23:32.690Z,99.90
2022-10-20T23:26:04.509Z,99.90
2022-10-20T23:28:33.133Z,99.90
2022-10-20T23:31:12.264Z,99.90
2022-10-20T23:33:41.304Z,99.90
2022-10-20T23:36:09.874Z,99.90
2022-10-20T23:38:37.913Z,99.90
2022-10-20T23:41:07.626Z,99.90
2022-10-20T23:46:08.908Z,99.90
2022-10-20T23:48:37.178Z,99.90
2022-10-20T23:51:05.370Z,99.90
2022-10-20T23:53:34.013Z,99.90
2022-10-20T23:56:02.015Z,99.90
2022-10-20T23:58:31.423Z,99.90
